createdAt,value
2022-09-07T00:00:52.643Z,20.17
2022-09-07T00:03:20.318Z,14.07
2022-09-07T00:05:49.709Z,10.48
2022-09-07T00:08:18.425Z,16.35
2022-09-07T00:11:00.141Z,13.18
2022-09-07T00:13:29.607Z,10.77
2022-09-07T00:15:56.989Z,11.98
2022-09-07T00:18:24.399Z,17.98
2022-09-07T00:21:06.719Z,12.15
2022-09-07T00:23:35.289Z,12.88
2022-09-07T00:26:08.310Z,15.45
2022-09-07T00:28:36.333Z,13.07
2022-09-07T00:31:05.017Z,10.50
2022-09-07T00:33:31.991Z,14.38
2022-09-07T00:35:59.339Z,11.35
2022-09-07T00:38:26.568Z,13.98
2022-09-07T00:40:53.763Z,12.10
2022-09-07T00:43:58.250Z,17.40
2022-09-07T00:46:28.193Z,15.48
2022-09-07T00:48:55.178Z,10.88
2022-09-07T00:51:32.053Z,10.65
2022-09-07T00:54:04.335Z,19.98
2022-09-07T00:56:36.831Z,15.30
2022-09-07T00:59:05.145Z,12.63
2022-09-07T01:01:34.184Z,14.25
2022-09-07T01:04:03.101Z,11.00
2022-09-07T01:06:34.271Z,11.85
2022-09-07T01:09:19.720Z,12.52
2022-09-07T01:11:51.116Z,12.45
2022-09-07T01:14:34.747Z,13.45
2022-09-07T01:17:23.731Z,14.13
2022-09-07T01:20:11.964Z,12.88
2022-09-07T01:22:47.726Z,13.32
2022-09-07T01:25:35.943Z,15.25
2022-09-07T01:28:05.906Z,9.27
2022-09-07T01:30:38.216Z,13.15
2022-09-07T01:33:35.604Z,11.60
2022-09-07T01:36:24.333Z,12.45
2022-09-07T01:39:02.571Z,10.40
2022-09-07T01:41:54.638Z,10.80
2022-09-07T01:44:39.427Z,10.52
2022-09-07T01:47:19.072Z,8.98
2022-09-07T01:49:52.355Z,9.00
2022-09-07T01:52:37.344Z,12.07
2022-09-07T01:55:14.946Z,8.50
2022-09-07T01:57:49.590Z,12.75
2022-09-07T02:00:19.260Z,9.65
2022-09-07T02:02:59.440Z,5.45
2022-09-07T02:05:41.415Z,5.68
2022-09-07T02:08:16.580Z,7.22
2022-09-07T02:10:51.876Z,12.25
2022-09-07T02:13:37.240Z,7.57
2022-09-07T02:16:20.512Z,7.38
2022-09-07T02:18:52.647Z,8.60
2022-09-07T02:21:23.851Z,11.23
2022-09-07T02:23:56.109Z,9.93
2022-09-07T02:26:25.672Z,12.23
2022-09-07T02:28:52.680Z,9.07
2022-09-07T02:31:20.084Z,11.40
2022-09-07T02:33:47.714Z,8.63
2022-09-07T02:36:19.984Z,9.82
2022-09-07T02:38:46.956Z,9.07
2022-09-07T02:41:34.844Z,12.95
2022-09-07T02:44:04.552Z,8.50
2022-09-07T02:46:50.183Z,9.27
2022-09-07T02:49:44.635Z,9.00
2022-09-07T02:52:14.348Z,9.68
2022-09-07T02:54:59.711Z,14.02
2022-09-07T02:57:47.888Z,8.82
2022-09-07T03:00:26.229Z,7.72
2022-09-07T03:03:20.951Z,8.07
2022-09-07T03:06:01.739Z,11.98
2022-09-07T03:08:47.216Z,7.18
2022-09-07T03:11:15.236Z,8.10
2022-09-07T03:13:42.224Z,9.10
2022-09-07T03:16:14.205Z,8.52
2022-09-07T03:18:43.135Z,10.52
2022-09-07T03:21:11.056Z,10.80
2022-09-07T03:23:38.367Z,10.50
2022-09-07T03:26:05.623Z,7.70
2022-09-07T03:28:32.571Z,9.30
2022-09-07T03:31:01.147Z,11.48
2022-09-07T03:33:28.119Z,8.90
2022-09-07T03:36:00.468Z,10.23
2022-09-07T03:38:27.551Z,11.50
2022-09-07T03:41:07.741Z,12.43
2022-09-07T03:43:34.952Z,8.95
2022-09-07T03:46:06.360Z,9.23
2022-09-07T03:48:34.917Z,10.68
2022-09-07T03:51:04.875Z,9.90
2022-09-07T03:53:36.418Z,9.95
2022-09-07T03:56:13.399Z,6.95
2022-09-07T03:58:40.499Z,14.50
2022-09-07T04:01:10.031Z,7.47
2022-09-07T04:03:37.710Z,8.18
2022-09-07T04:06:05.428Z,7.70
2022-09-07T04:08:34.783Z,9.63
2022-09-07T04:11:03.834Z,11.35
2022-09-07T04:13:31.988Z,10.32
2022-09-07T04:15:58.964Z,5.97
2022-09-07T04:18:26.141Z,7.90
2022-09-07T04:20:53.074Z,8.75
2022-09-07T04:23:20.487Z,11.73
2022-09-07T04:25:52.012Z,10.15
2022-09-07T04:28:20.570Z,11.95
2022-09-07T04:30:48.146Z,8.80
2022-09-07T04:33:15.559Z,8.32
2022-09-07T04:35:42.818Z,11.40
2022-09-07T04:38:14.610Z,10.68
2022-09-07T04:40:42.016Z,8.88
2022-09-07T04:43:09.667Z,8.00
2022-09-07T04:45:37.695Z,15.32
2022-09-07T04:48:05.778Z,10.25
2022-09-07T04:50:33.269Z,10.85
2022-09-07T04:53:00.433Z,9.20
2022-09-07T04:55:27.412Z,8.35
2022-09-07T04:57:54.376Z,9.52
2022-09-07T05:00:21.427Z,8.75
2022-09-07T05:02:48.412Z,10.90
2022-09-07T05:05:15.485Z,14.10
2022-09-07T05:07:42.499Z,9.35
2022-09-07T05:10:09.547Z,11.60
2022-09-07T05:12:36.527Z,15.02
2022-09-07T05:15:04.218Z,12.50
2022-09-07T05:17:31.307Z,15.05
2022-09-07T05:19:58.701Z,9.10
2022-09-07T05:22:25.690Z,12.18
2022-09-07T05:24:52.732Z,12.63
2022-09-07T05:27:19.739Z,27.48
2022-09-07T05:30:03.871Z,28.08
2022-09-07T05:32:32.135Z,12.68
2022-09-07T05:34:59.108Z,10.55
2022-09-07T05:37:26.075Z,11.15
2022-09-07T05:39:55.137Z,12.23
2022-09-07T05:42:22.746Z,14.68
2022-09-07T05:44:49.713Z,12.88
2022-09-07T05:47:16.732Z,12.13
2022-09-07T05:49:43.707Z,20.27
2022-09-07T05:52:10.715Z,32.38
2022-09-07T05:54:37.777Z,48.83
2022-09-07T05:57:04.971Z,47.22
2022-09-07T05:59:32.160Z,26.48
2022-09-07T06:02:00.043Z,33.58
2022-09-07T06:04:27.082Z,21.50
2022-09-07T06:12:28.408Z,19.33
2022-09-07T06:14:55.458Z,19.50
2022-09-07T06:17:22.468Z,26.08
2022-09-07T06:19:49.440Z,15.10
2022-09-07T06:22:16.385Z,31.60
2022-09-07T06:24:43.346Z,19.33
2022-09-07T06:27:10.454Z,16.45
2022-09-07T06:29:37.615Z,18.75
2022-09-07T06:34:51.999Z,21.70
2022-09-07T06:37:21.216Z,21.33
2022-09-07T06:39:49.408Z,12.00
2022-09-07T06:42:16.819Z,12.18
2022-09-07T06:44:44.575Z,15.48
2022-09-07T06:47:11.646Z,20.73
2022-09-07T06:49:38.628Z,18.15
2022-09-07T06:52:05.594Z,23.55
2022-09-07T06:57:19.485Z,15.95
2022-09-07T06:59:46.476Z,9.48
2022-09-07T07:02:16.026Z,12.90
2022-09-07T07:04:42.933Z,12.18
2022-09-07T07:07:12.102Z,9.23
2022-09-07T07:09:39.843Z,13.60
2022-09-07T07:12:07.086Z,9.65
2022-09-07T07:14:37.263Z,9.27
2022-09-07T07:17:06.877Z,7.97
2022-09-07T07:19:33.875Z,13.00
2022-09-07T07:24:47.915Z,9.95
2022-09-07T07:27:14.837Z,12.57
2022-09-07T07:29:41.784Z,14.40
2022-09-07T07:32:08.869Z,10.65
2022-09-07T07:34:35.840Z,11.40
2022-09-07T07:37:02.790Z,9.93
2022-09-07T07:42:16.726Z,12.40
2022-09-07T07:44:43.810Z,12.18
2022-09-07T07:47:11.068Z,20.83
2022-09-07T07:49:38.397Z,12.40
2022-09-07T07:54:53.233Z,15.32
2022-09-07T07:57:20.425Z,11.77
2022-09-07T07:59:47.363Z,13.20
2022-09-07T08:02:16.958Z,12.30
2022-09-07T08:04:44.266Z,7.50
2022-09-07T08:07:14.443Z,11.60
2022-09-07T08:09:43.166Z,16.70
2022-09-07T08:12:13.056Z,10.95
2022-09-07T08:14:41.592Z,11.05
2022-09-07T08:17:11.166Z,9.55
2022-09-07T08:19:38.483Z,11.48
2022-09-07T08:22:06.291Z,9.73
2022-09-07T08:24:33.523Z,13.98
2022-09-07T08:27:00.950Z,12.38
2022-09-07T08:29:31.281Z,11.30
2022-09-07T08:32:00.847Z,9.90
2022-09-07T08:34:27.767Z,9.30
2022-09-07T08:36:54.924Z,13.40
2022-09-07T08:39:21.848Z,17.80
2022-09-07T08:42:09.570Z,10.60
2022-09-07T08:44:44.848Z,11.77
2022-09-07T08:47:33.779Z,12.20
2022-09-07T08:50:21.988Z,17.40
2022-09-07T08:52:51.342Z,16.58
2022-09-07T08:55:26.875Z,15.27
2022-09-07T08:58:45.226Z,21.70
2022-09-07T09:01:33.345Z,17.73
2022-09-07T09:04:17.551Z,12.20
2022-09-07T09:07:10.538Z,14.88
2022-09-07T09:09:56.263Z,18.15
2022-09-07T09:12:26.221Z,12.73
2022-09-07T09:15:21.168Z,13.63
2022-09-07T09:18:14.506Z,11.93
2022-09-07T09:23:26.029Z,16.40
2022-09-07T09:25:55.241Z,14.70
2022-09-07T09:28:24.656Z,11.48
2022-09-07T09:30:53.502Z,12.63
2022-09-07T09:33:28.999Z,16.98
2022-09-07T09:36:00.637Z,13.05
2022-09-07T09:38:33.641Z,14.10
2022-09-07T09:41:20.972Z,10.25
2022-09-07T09:43:58.215Z,13.88
2022-09-07T09:46:37.003Z,15.88
2022-09-07T09:49:15.805Z,8.45
2022-09-07T09:54:37.223Z,12.88
2022-09-07T09:57:04.447Z,11.68
2022-09-07T10:05:34.871Z,9.05
2022-09-07T10:08:02.890Z,9.30
2022-09-07T10:10:31.453Z,12.77
2022-09-07T10:12:59.374Z,11.35
2022-09-07T10:15:40.905Z,11.60
2022-09-07T10:18:37.459Z,11.23
2022-09-07T10:21:25.143Z,10.18
2022-09-07T10:24:16.040Z,11.50
2022-09-07T10:26:48.607Z,9.55
2022-09-07T10:29:36.095Z,10.52
2022-09-07T10:32:33.526Z,12.48
2022-09-07T10:35:25.193Z,11.48
2022-09-07T10:37:57.669Z,8.65
2022-09-07T10:41:10.054Z,12.77
2022-09-07T10:43:52.053Z,10.57
2022-09-07T10:46:56.695Z,12.23
2022-09-07T10:50:21.811Z,8.18
2022-09-07T10:52:49.324Z,9.20
2022-09-07T10:55:54.065Z,7.78
2022-09-07T10:59:04.486Z,6.93
2022-09-07T11:01:43.689Z,6.93
2022-09-07T11:04:13.377Z,10.48
2022-09-07T11:06:43.728Z,8.80
2022-09-07T11:09:26.458Z,4.65
2022-09-07T11:12:26.035Z,8.70
2022-09-07T11:15:12.180Z,4.90
2022-09-07T11:17:59.792Z,4.85
2022-09-07T11:20:50.773Z,6.57
2022-09-07T11:23:20.242Z,4.90
2022-09-07T11:26:17.648Z,6.72
2022-09-07T11:28:47.145Z,8.88
2022-09-07T11:31:30.668Z,5.63
2022-09-07T11:37:02.781Z,3.90
2022-09-07T11:39:38.390Z,4.88
2022-09-07T11:45:23.153Z,6.78
2022-09-07T11:48:19.621Z,5.57
2022-09-07T11:50:57.490Z,4.70
2022-09-07T11:53:28.678Z,5.93
2022-09-07T11:56:00.827Z,4.05
2022-09-07T11:59:12.345Z,5.87
2022-09-07T12:01:57.069Z,5.57
2022-09-07T12:04:46.793Z,5.88
2022-09-07T12:07:23.463Z,6.65
2022-09-07T12:10:33.525Z,4.80
2022-09-07T12:13:31.924Z,6.35
2022-09-07T12:16:04.419Z,6.18
2022-09-07T12:18:56.060Z,4.65
2022-09-07T12:21:32.360Z,10.45
2022-09-07T12:23:59.472Z,6.88
2022-09-07T12:26:38.211Z,5.43
2022-09-07T12:29:20.342Z,7.97
2022-09-07T12:31:59.231Z,6.50
2022-09-07T12:34:52.413Z,6.82
2022-09-07T12:37:40.342Z,8.85
2022-09-07T12:40:33.228Z,5.13
2022-09-07T12:43:15.511Z,7.65
2022-09-07T12:45:42.510Z,10.35
2022-09-07T12:48:15.436Z,9.73
2022-09-07T12:53:29.022Z,9.32
2022-09-07T12:56:23.251Z,5.90
2022-09-07T12:59:02.102Z,6.75
2022-09-07T13:01:55.869Z,6.38
2022-09-07T13:04:29.018Z,10.50
2022-09-07T13:12:01.143Z,5.05
2022-09-07T13:14:29.638Z,5.28
2022-09-07T13:17:38.792Z,5.57
2022-09-07T13:20:18.831Z,8.18
2022-09-07T13:22:45.751Z,5.95
2022-09-07T13:25:20.273Z,6.38
2022-09-07T13:28:05.995Z,5.55
2022-09-07T13:30:38.846Z,6.53
2022-09-07T13:33:24.450Z,7.63
2022-09-07T13:35:54.664Z,9.20
2022-09-07T13:38:22.497Z,8.85
2022-09-07T13:40:52.317Z,7.57
2022-09-07T13:43:24.461Z,6.10
2022-09-07T13:45:54.243Z,13.23
2022-09-07T13:48:37.271Z,10.77
2022-09-07T13:51:37.810Z,9.02
2022-09-07T13:54:17.070Z,12.38
2022-09-07T13:57:02.675Z,8.30
2022-09-07T13:59:33.815Z,10.25
2022-09-07T14:02:01.788Z,13.90
2022-09-07T14:04:40.392Z,7.95
2022-09-07T14:07:16.835Z,7.75
2022-09-07T14:09:43.772Z,10.60
2022-09-07T14:12:20.175Z,7.50
2022-09-07T14:15:17.434Z,6.63
2022-09-07T14:17:45.618Z,10.73
2022-09-07T14:20:15.544Z,9.68
2022-09-07T14:22:43.343Z,12.48
2022-09-07T14:25:19.030Z,6.85
2022-09-07T14:27:47.951Z,6.35
2022-09-07T14:30:28.132Z,8.27
2022-09-07T14:33:02.764Z,9.73
2022-09-07T14:35:34.344Z,10.07
2022-09-07T14:41:38.531Z,4.63
2022-09-07T14:44:06.442Z,8.05
2022-09-07T14:46:34.346Z,7.15
2022-09-07T14:49:20.111Z,11.50
2022-09-07T14:51:48.382Z,10.10
2022-09-07T14:54:27.877Z,8.10
2022-09-07T14:57:01.855Z,8.77
2022-09-07T14:59:46.975Z,8.35
2022-09-07T15:02:22.011Z,5.75
2022-09-07T15:05:10.212Z,9.82
2022-09-07T15:07:45.241Z,7.97
2022-09-07T15:10:23.557Z,7.22
2022-09-07T15:12:54.770Z,12.65
2022-09-07T15:15:28.681Z,6.72
2022-09-07T15:18:01.854Z,7.57
2022-09-07T15:20:44.111Z,8.02
2022-09-07T15:23:16.651Z,8.38
2022-09-07T15:25:50.927Z,10.50
2022-09-07T15:34:17.794Z,10.07
2022-09-07T15:36:50.865Z,11.98
2022-09-07T15:41:59.024Z,9.70
2022-09-07T15:44:28.608Z,9.48
2022-09-07T15:49:47.714Z,9.43
2022-09-07T15:52:17.854Z,11.40
2022-09-07T15:54:45.059Z,8.20
2022-09-07T15:59:59.028Z,7.85
2022-09-07T16:05:13.749Z,8.60
2022-09-07T16:10:31.628Z,7.85
2022-09-07T16:13:01.982Z,9.38
2022-09-07T16:15:29.945Z,11.63
2022-09-07T16:17:57.068Z,8.13
2022-09-07T16:20:24.123Z,11.70
2022-09-07T16:25:39.597Z,8.57
2022-09-07T16:28:07.213Z,11.38
2022-09-07T16:30:34.444Z,10.85
2022-09-07T16:33:01.542Z,24.00
2022-09-07T16:35:28.507Z,12.90
2022-09-07T16:40:43.607Z,10.48
2022-09-07T16:43:10.602Z,12.60
2022-09-07T16:48:24.460Z,8.75
2022-09-07T16:50:56.574Z,10.82
2022-09-07T16:53:32.283Z,11.25
2022-09-07T16:56:08.959Z,7.70
2022-09-07T16:58:39.630Z,13.02
2022-09-07T17:01:08.582Z,7.90
2022-09-07T17:03:39.398Z,8.57
2022-09-07T17:06:08.369Z,9.65
2022-09-07T17:08:36.548Z,10.32
2022-09-07T17:11:11.051Z,10.65
2022-09-07T17:13:39.685Z,8.95
2022-09-07T17:16:15.504Z,11.85
2022-09-07T17:21:33.290Z,17.40
2022-09-07T17:24:03.797Z,20.85
2022-09-07T17:26:32.111Z,10.73
2022-09-07T17:29:01.067Z,13.98
2022-09-07T17:34:20.251Z,12.73
2022-09-07T17:36:47.903Z,26.95
2022-09-07T17:39:17.250Z,11.73
2022-09-07T17:41:46.646Z,9.50
2022-09-07T17:44:13.792Z,9.57
2022-09-07T17:46:40.767Z,12.98
2022-09-07T17:49:12.229Z,10.90
2022-09-07T17:51:39.751Z,10.45
2022-09-07T17:54:11.586Z,12.43
2022-09-07T17:56:40.139Z,7.55
2022-09-07T18:01:55.221Z,14.05
2022-09-07T18:04:22.856Z,11.38
2022-09-07T18:06:50.084Z,13.85
2022-09-07T18:09:17.076Z,10.38
2022-09-07T18:11:45.813Z,9.90
2022-09-07T18:14:14.603Z,13.70
2022-09-07T18:16:42.757Z,11.52
2022-09-07T18:19:11.615Z,9.13
2022-09-07T18:21:41.040Z,11.90
2022-09-07T18:24:21.775Z,17.95
2022-09-07T18:26:51.982Z,13.90
2022-09-07T18:29:32.518Z,14.32
2022-09-07T18:32:08.720Z,8.77
2022-09-07T18:34:37.694Z,13.65
2022-09-07T18:37:05.273Z,15.40
2022-09-07T18:39:33.513Z,11.38
2022-09-07T18:42:00.542Z,18.40
2022-09-07T18:47:22.268Z,14.70
2022-09-07T18:49:51.720Z,17.27
2022-09-07T18:55:08.643Z,12.10
2022-09-07T18:57:36.540Z,17.80
2022-09-07T19:00:09.085Z,13.60
2022-09-07T19:02:36.680Z,12.55
2022-09-07T19:07:51.151Z,11.73
2022-09-07T19:10:18.118Z,12.23
2022-09-07T19:12:46.309Z,24.58
2022-09-07T19:15:14.356Z,18.65
2022-09-07T19:17:41.403Z,18.27
2022-09-07T19:20:08.962Z,22.70
2022-09-07T19:22:36.022Z,15.55
2022-09-07T19:25:03.096Z,14.85
2022-09-07T19:27:32.844Z,13.50
2022-09-07T19:29:59.849Z,12.65
2022-09-07T19:32:26.872Z,11.57
2022-09-07T19:34:54.826Z,12.50
2022-09-07T19:37:26.061Z,16.52
2022-09-07T19:39:56.843Z,15.48
2022-09-07T19:42:25.180Z,15.23
2022-09-07T19:44:53.859Z,18.60
2022-09-07T19:47:21.424Z,16.25
2022-09-07T19:49:49.184Z,11.48
2022-09-07T19:52:16.593Z,15.52
2022-09-07T19:54:43.883Z,15.07
2022-09-07T19:57:10.795Z,11.88
2022-09-07T19:59:37.719Z,19.85
2022-09-07T20:02:06.164Z,14.25
2022-09-07T20:04:33.135Z,22.58
2022-09-07T20:07:00.358Z,19.77
2022-09-07T20:09:27.317Z,17.48
2022-09-07T20:11:54.262Z,13.13
2022-09-07T20:14:21.264Z,13.98
2022-09-07T20:16:48.219Z,16.88
2022-09-07T20:19:15.340Z,13.63
2022-09-07T20:21:42.746Z,15.45
2022-09-07T20:24:12.335Z,10.27
2022-09-07T20:26:39.870Z,14.68
2022-09-07T20:31:54.210Z,18.75
2022-09-07T20:34:21.283Z,19.73
2022-09-07T20:36:51.743Z,12.48
2022-09-07T20:39:19.665Z,16.13
2022-09-07T20:41:47.019Z,12.60
2022-09-07T20:44:14.875Z,10.18
2022-09-07T20:46:42.044Z,13.82
2022-09-07T20:49:09.591Z,17.88
2022-09-07T20:51:36.654Z,31.00
2022-09-07T20:54:03.768Z,29.05
2022-09-07T20:56:30.860Z,15.20
2022-09-07T20:59:00.229Z,18.15
2022-09-07T21:01:29.099Z,11.00
2022-09-07T21:03:58.087Z,17.80
2022-09-07T21:06:26.747Z,13.52
2022-09-07T21:08:54.982Z,19.23
2022-09-07T21:11:27.846Z,11.25
2022-09-07T21:14:08.387Z,17.38
2022-09-07T21:16:36.404Z,16.33
2022-09-07T21:19:06.890Z,12.18
2022-09-07T21:21:38.891Z,17.55
2022-09-07T21:24:07.453Z,14.45
2022-09-07T21:26:34.356Z,15.30
2022-09-07T21:29:03.690Z,10.27
2022-09-07T21:31:32.393Z,20.55
2022-09-07T21:34:01.332Z,18.73
2022-09-07T21:36:28.960Z,11.88
2022-09-07T21:38:55.915Z,15.57
2022-09-07T21:41:24.842Z,14.35
2022-09-07T21:43:59.858Z,12.18
2022-09-07T21:46:28.598Z,13.05
2022-09-07T21:48:57.182Z,17.48
2022-09-07T21:51:24.715Z,21.65
2022-09-07T21:54:00.182Z,14.30
2022-09-07T21:56:29.076Z,12.48
2022-09-07T21:58:58.125Z,13.43
2022-09-07T22:01:27.136Z,18.08
2022-09-07T22:03:59.539Z,16.35
2022-09-07T22:06:30.124Z,19.80
2022-09-07T22:08:58.673Z,12.07
2022-09-07T22:11:28.418Z,10.18
2022-09-07T22:14:04.271Z,14.80
2022-09-07T22:16:33.111Z,14.25
2022-09-07T22:19:00.992Z,11.27
2022-09-07T22:21:29.455Z,11.50
2022-09-07T22:23:59.217Z,13.20
2022-09-07T22:26:29.081Z,13.25
2022-09-07T22:28:56.091Z,13.27
2022-09-07T22:31:26.248Z,20.55
2022-09-07T22:33:54.831Z,10.18
2022-09-07T22:36:24.189Z,10.00
2022-09-07T22:38:53.764Z,9.68
2022-09-07T22:41:23.369Z,12.70
2022-09-07T22:43:51.069Z,12.52
2022-09-07T22:46:20.319Z,12.18
2022-09-07T22:48:48.045Z,14.85
2022-09-07T22:51:15.695Z,9.18
2022-09-07T22:53:44.027Z,14.02
2022-09-07T22:56:16.785Z,9.98
2022-09-07T22:58:50.144Z,10.73
2022-09-07T23:01:17.539Z,9.20
2022-09-07T23:03:45.085Z,12.93
2022-09-07T23:06:33.152Z,11.52
2022-09-07T23:09:03.525Z,14.38
2022-09-07T23:11:30.646Z,8.95
2022-09-07T23:13:59.969Z,7.82
2022-09-07T23:16:28.076Z,11.45
2022-09-07T23:18:57.002Z,12.05
2022-09-07T23:21:23.962Z,10.35
2022-09-07T23:23:55.873Z,15.38
2022-09-07T23:26:24.208Z,11.27
2022-09-07T23:28:55.755Z,11.70
2022-09-07T23:31:23.726Z,12.55
2022-09-07T23:33:50.955Z,15.38
2022-09-07T23:36:18.622Z,12.27
2022-09-07T23:38:46.409Z,9.85
2022-09-07T23:41:17.825Z,9.73
2022-09-07T23:43:45.235Z,6.80
2022-09-07T23:46:13.541Z,8.75
2022-09-07T23:48:42.632Z,9.00
2022-09-07T23:51:09.820Z,9.32
2022-09-07T23:53:36.795Z,10.25
2022-09-07T23:56:04.192Z,15.27
2022-09-07T23:58:31.301Z,8.73
